sensor_id;sensor_type;location;lat;lon;timestamp;temperature;humidity
78708;SHT31;68037;51.978;5.650;2023-07-02T00:01:17;20.4;66.5
78708;SHT31;68037;51.978;5.650;2023-07-02T00:03:47;20.3;66.1
78708;SHT31;68037;51.978;5.650;2023-07-02T00:06:16;20.3;66.2
78708;SHT31;68037;51.978;5.650;2023-07-02T00:08:46;20.3;66.3
78708;SHT31;68037;51.978;5.650;2023-07-02T00:11:16;20.3;66.3
78708;SHT31;68037;51.978;5.650;2023-07-02T00:13:46;20.3;66.2
78708;SHT31;68037;51.978;5.650;2023-07-02T00:16:17;20.3;66.5
78708;SHT31;68037;51.978;5.650;2023-07-02T00:18:47;20.3;66.1
78708;SHT31;68037;51.978;5.650;2023-07-02T00:21:20;20.3;66.0
78708;SHT31;68037;51.978;5.650;2023-07-02T00:23:51;20.3;66.9
78708;SHT31;68037;51.978;5.650;2023-07-02T00:26:21;20.2;68.8
78708;SHT31;68037;51.978;5.650;2023-07-02T00:28:50;20.1;66.6
78708;SHT31;68037;51.978;5.650;2023-07-02T00:31:20;19.9;67.1
78708;SHT31;68037;51.978;5.650;2023-07-02T00:33:50;19.7;67.4
78708;SHT31;68037;51.978;5.650;2023-07-02T00:36:20;19.5;66.6
78708;SHT31;68037;51.978;5.650;2023-07-02T00:38:50;19.3;67.0
78708;SHT31;68037;51.978;5.650;2023-07-02T00:41:20;19.2;69.4
78708;SHT31;68037;51.978;5.650;2023-07-02T00:43:49;19.1;71.1
78708;SHT31;68037;51.978;5.650;2023-07-02T00:46:23;19.0;70.6
78708;SHT31;68037;51.978;5.650;2023-07-02T00:48:55;18.9;70.7
78708;SHT31;68037;51.978;5.650;2023-07-02T00:51:26;18.9;71.2
78708;SHT31;68037;51.978;5.650;2023-07-02T00:53:57;18.9;69.6
78708;SHT31;68037;51.978;5.650;2023-07-02T00:56:27;18.8;68.4
78708;SHT31;68037;51.978;5.650;2023-07-02T00:58:57;18.8;68.9
78708;SHT31;68037;51.978;5.650;2023-07-02T01:01:30;18.8;68.8
78708;SHT31;68037;51.978;5.650;2023-07-02T01:04:07;18.7;68.8
78708;SHT31;68037;51.978;5.650;2023-07-02T01:06:37;18.7;68.1
78708;SHT31;68037;51.978;5.650;2023-07-02T01:09:08;18.7;68.8
78708;SHT31;68037;51.978;5.650;2023-07-02T01:11:40;18.7;67.2
78708;SHT31;68037;51.978;5.650;2023-07-02T01:14:14;18.7;67.2
78708;SHT31;68037;51.978;5.650;2023-07-02T01:16:47;18.7;67.8
78708;SHT31;68037;51.978;5.650;2023-07-02T01:19:22;18.7;67.6
78708;SHT31;68037;51.978;5.650;2023-07-02T01:21:54;18.7;67.5
78708;SHT31;68037;51.978;5.650;2023-07-02T01:24:24;18.7;68.9
78708;SHT31;68037;51.978;5.650;2023-07-02T01:26:54;18.8;68.7
78708;SHT31;68037;51.978;5.650;2023-07-02T01:29:30;18.9;67.1
78708;SHT31;68037;51.978;5.650;2023-07-02T01:32:08;19.0;66.3
78708;SHT31;68037;51.978;5.650;2023-07-02T01:34:37;19.1;66.3
78708;SHT31;68037;51.978;5.650;2023-07-02T01:37:09;19.2;65.9
78708;SHT31;68037;51.978;5.650;2023-07-02T01:39:42;19.3;65.9
78708;SHT31;68037;51.978;5.650;2023-07-02T01:42:16;19.4;66.0
78708;SHT31;68037;51.978;5.650;2023-07-02T01:44:47;19.5;64.9
78708;SHT31;68037;51.978;5.650;2023-07-02T01:47:18;19.5;64.6
78708;SHT31;68037;51.978;5.650;2023-07-02T01:49:50;19.5;64.9
78708;SHT31;68037;51.978;5.650;2023-07-02T01:52:21;19.5;65.2
78708;SHT31;68037;51.978;5.650;2023-07-02T01:54:51;19.4;64.9
78708;SHT31;68037;51.978;5.650;2023-07-02T01:57:21;19.4;64.7
78708;SHT31;68037;51.978;5.650;2023-07-02T01:59:51;19.3;65.4
78708;SHT31;68037;51.978;5.650;2023-07-02T02:02:20;19.3;65.5
78708;SHT31;68037;51.978;5.650;2023-07-02T02:04:50;19.2;65.8
78708;SHT31;68037;51.978;5.650;2023-07-02T02:07:20;19.1;65.9
78708;SHT31;68037;51.978;5.650;2023-07-02T02:09:49;19.1;66.2
78708;SHT31;68037;51.978;5.650;2023-07-02T02:12:19;19.0;66.0
78708;SHT31;68037;51.978;5.650;2023-07-02T02:14:49;18.9;66.2
78708;SHT31;68037;51.978;5.650;2023-07-02T02:17:18;18.9;66.3
78708;SHT31;68037;51.978;5.650;2023-07-02T02:19:48;18.8;66.3
78708;SHT31;68037;51.978;5.650;2023-07-02T02:22:17;18.8;66.6
78708;SHT31;68037;51.978;5.650;2023-07-02T02:24:47;18.7;66.8
78708;SHT31;68037;51.978;5.650;2023-07-02T02:27:16;18.7;66.9
78708;SHT31;68037;51.978;5.650;2023-07-02T02:29:46;18.7;67.0
78708;SHT31;68037;51.978;5.650;2023-07-02T02:32:15;18.6;67.3
78708;SHT31;68037;51.978;5.650;2023-07-02T02:34:47;18.6;67.2
78708;SHT31;68037;51.978;5.650;2023-07-02T02:37:16;18.6;67.3
78708;SHT31;68037;51.978;5.650;2023-07-02T02:39:46;18.6;67.8
78708;SHT31;68037;51.978;5.650;2023-07-02T02:42:17;18.6;67.4
78708;SHT31;68037;51.978;5.650;2023-07-02T02:44:47;18.5;67.0
78708;SHT31;68037;51.978;5.650;2023-07-02T02:47:19;18.5;67.1
78708;SHT31;68037;51.978;5.650;2023-07-02T02:49:48;18.5;66.7
78708;SHT31;68037;51.978;5.650;2023-07-02T02:52:18;18.5;66.6
78708;SHT31;68037;51.978;5.650;2023-07-02T02:54:49;18.4;67.1
78708;SHT31;68037;51.978;5.650;2023-07-02T02:57:20;18.4;67.1
78708;SHT31;68037;51.978;5.650;2023-07-02T02:59:49;18.4;66.4
78708;SHT31;68037;51.978;5.650;2023-07-02T03:02:19;18.4;67.1
78708;SHT31;68037;51.978;5.650;2023-07-02T03:04:49;18.3;67.0
78708;SHT31;68037;51.978;5.650;2023-07-02T03:07:19;18.3;67.5
78708;SHT31;68037;51.978;5.650;2023-07-02T03:09:51;18.3;67.8
78708;SHT31;68037;51.978;5.650;2023-07-02T03:12:22;18.3;68.0
78708;SHT31;68037;51.978;5.650;2023-07-02T03:14:52;18.3;68.0
78708;SHT31;68037;51.978;5.650;2023-07-02T03:17:22;18.3;66.8
78708;SHT31;68037;51.978;5.650;2023-07-02T03:19:54;18.3;67.5
78708;SHT31;68037;51.978;5.650;2023-07-02T03:22:24;18.3;67.4
78708;SHT31;68037;51.978;5.650;2023-07-02T03:24:57;18.2;67.4
78708;SHT31;68037;51.978;5.650;2023-07-02T03:27:27;18.2;66.5
78708;SHT31;68037;51.978;5.650;2023-07-02T03:29:57;18.2;66.8
78708;SHT31;68037;51.978;5.650;2023-07-02T03:32:26;18.2;66.5
78708;SHT31;68037;51.978;5.650;2023-07-02T03:34:56;18.1;66.6
78708;SHT31;68037;51.978;5.650;2023-07-02T03:37:26;18.1;66.7
78708;SHT31;68037;51.978;5.650;2023-07-02T03:39:56;18.1;66.5
78708;SHT31;68037;51.978;5.650;2023-07-02T03:42:26;18.1;66.5
78708;SHT31;68037;51.978;5.650;2023-07-02T03:44:55;18.0;66.4
78708;SHT31;68037;51.978;5.650;2023-07-02T03:47:25;18.0;66.6
78708;SHT31;68037;51.978;5.650;2023-07-02T03:49:54;18.0;66.4
78708;SHT31;68037;51.978;5.650;2023-07-02T03:52:24;18.0;66.8
78708;SHT31;68037;51.978;5.650;2023-07-02T03:54:55;18.0;66.7
78708;SHT31;68037;51.978;5.650;2023-07-02T03:57:25;18.0;66.6
78708;SHT31;68037;51.978;5.650;2023-07-02T03:59:55;18.0;66.0
78708;SHT31;68037;51.978;5.650;2023-07-02T04:02:24;18.0;66.3
78708;SHT31;68037;51.978;5.650;2023-07-02T04:04:54;18.0;64.5
78708;SHT31;68037;51.978;5.650;2023-07-02T04:07:24;18.0;64.8
78708;SHT31;68037;51.978;5.650;2023-07-02T04:09:53;18.0;65.7
78708;SHT31;68037;51.978;5.650;2023-07-02T04:12:23;17.9;65.0
78708;SHT31;68037;51.978;5.650;2023-07-02T04:14:53;17.9;65.5
78708;SHT31;68037;51.978;5.650;2023-07-02T04:17:23;17.9;65.5
78708;SHT31;68037;51.978;5.650;2023-07-02T04:19:54;17.9;65.5
78708;SHT31;68037;51.978;5.650;2023-07-02T04:22:24;18.0;65.4
78708;SHT31;68037;51.978;5.650;2023-07-02T04:24:54;18.0;64.6
78708;SHT31;68037;51.978;5.650;2023-07-02T04:27:23;18.1;64.5
78708;SHT31;68037;51.978;5.650;2023-07-02T04:29:53;18.1;64.0
78708;SHT31;68037;51.978;5.650;2023-07-02T04:32:24;18.2;64.2
78708;SHT31;68037;51.978;5.650;2023-07-02T04:34:53;18.2;64.0
78708;SHT31;68037;51.978;5.650;2023-07-02T04:37:25;18.3;63.7
78708;SHT31;68037;51.978;5.650;2023-07-02T04:39:56;18.3;63.4
78708;SHT31;68037;51.978;5.650;2023-07-02T04:42:25;18.3;62.8
78708;SHT31;68037;51.978;5.650;2023-07-02T04:44:55;18.4;62.2
78708;SHT31;68037;51.978;5.650;2023-07-02T04:47:30;18.4;62.2
78708;SHT31;68037;51.978;5.650;2023-07-02T04:50:00;18.4;61.1
78708;SHT31;68037;51.978;5.650;2023-07-02T04:52:30;18.4;61.8
78708;SHT31;68037;51.978;5.650;2023-07-02T04:55:00;18.4;61.8
78708;SHT31;68037;51.978;5.650;2023-07-02T04:57:29;18.4;61.6
78708;SHT31;68037;51.978;5.650;2023-07-02T04:59:59;18.3;61.5
78708;SHT31;68037;51.978;5.650;2023-07-02T05:02:29;18.3;62.1
78708;SHT31;68037;51.978;5.650;2023-07-02T05:04:59;18.3;61.2
78708;SHT31;68037;51.978;5.650;2023-07-02T05:07:28;18.3;61.7
78708;SHT31;68037;51.978;5.650;2023-07-02T05:09:58;18.3;60.8
78708;SHT31;68037;51.978;5.650;2023-07-02T05:12:27;18.2;61.4
78708;SHT31;68037;51.978;5.650;2023-07-02T05:14:57;18.2;61.1
78708;SHT31;68037;51.978;5.650;2023-07-02T05:17:27;18.2;60.9
78708;SHT31;68037;51.978;5.650;2023-07-02T05:19:58;18.2;61.4
78708;SHT31;68037;51.978;5.650;2023-07-02T05:22:27;18.2;60.6
78708;SHT31;68037;51.978;5.650;2023-07-02T05:24:57;18.2;60.2
78708;SHT31;68037;51.978;5.650;2023-07-02T05:27:27;18.2;60.7
78708;SHT31;68037;51.978;5.650;2023-07-02T05:29:56;18.2;60.3
78708;SHT31;68037;51.978;5.650;2023-07-02T05:32:26;18.2;60.9
78708;SHT31;68037;51.978;5.650;2023-07-02T05:34:56;18.2;60.7
78708;SHT31;68037;51.978;5.650;2023-07-02T05:37:25;18.2;61.0
78708;SHT31;68037;51.978;5.650;2023-07-02T05:39:55;18.2;60.8
78708;SHT31;68037;51.978;5.650;2023-07-02T05:42:25;18.2;60.8
78708;SHT31;68037;51.978;5.650;2023-07-02T05:44:54;18.3;60.6
78708;SHT31;68037;51.978;5.650;2023-07-02T05:47:26;18.3;60.6
78708;SHT31;68037;51.978;5.650;2023-07-02T05:49:55;18.3;60.7
78708;SHT31;68037;51.978;5.650;2023-07-02T05:52:25;18.3;60.0
78708;SHT31;68037;51.978;5.650;2023-07-02T05:54:55;18.3;59.4
78708;SHT31;68037;51.978;5.650;2023-07-02T05:57:24;18.3;59.5
78708;SHT31;68037;51.978;5.650;2023-07-02T05:59:54;18.3;59.5
78708;SHT31;68037;51.978;5.650;2023-07-02T06:02:23;18.3;59.7
78708;SHT31;68037;51.978;5.650;2023-07-02T06:04:53;18.4;59.6
78708;SHT31;68037;51.978;5.650;2023-07-02T06:07:23;18.4;59.8
78708;SHT31;68037;51.978;5.650;2023-07-02T06:09:53;18.4;59.7
78708;SHT31;68037;51.978;5.650;2023-07-02T06:12:23;18.5;59.1
78708;SHT31;68037;51.978;5.650;2023-07-02T06:14:52;18.5;60.0
78708;SHT31;68037;51.978;5.650;2023-07-02T06:17:23;18.5;60.0
78708;SHT31;68037;51.978;5.650;2023-07-02T06:19:53;18.6;59.8
78708;SHT31;68037;51.978;5.650;2023-07-02T06:22:23;18.6;59.9
78708;SHT31;68037;51.978;5.650;2023-07-02T06:24:52;18.6;59.6
78708;SHT31;68037;51.978;5.650;2023-07-02T06:27:22;18.7;58.6
78708;SHT31;68037;51.978;5.650;2023-07-02T06:29:52;18.7;59.4
78708;SHT31;68037;51.978;5.650;2023-07-02T06:32:22;18.7;59.8
78708;SHT31;68037;51.978;5.650;2023-07-02T06:34:51;18.8;58.1
78708;SHT31;68037;51.978;5.650;2023-07-02T06:37:21;18.8;58.5
78708;SHT31;68037;51.978;5.650;2023-07-02T06:39:51;18.8;59.2
78708;SHT31;68037;51.978;5.650;2023-07-02T06:42:22;18.9;57.7
78708;SHT31;68037;51.978;5.650;2023-07-02T06:44:52;18.9;57.7
78708;SHT31;68037;51.978;5.650;2023-07-02T06:47:21;19.0;57.6
78708;SHT31;68037;51.978;5.650;2023-07-02T06:49:51;19.0;57.7
78708;SHT31;68037;51.978;5.650;2023-07-02T06:52:21;19.0;56.6
78708;SHT31;68037;51.978;5.650;2023-07-02T06:54:51;19.1;56.8
78708;SHT31;68037;51.978;5.650;2023-07-02T06:57:21;19.1;57.6
78708;SHT31;68037;51.978;5.650;2023-07-02T06:59:50;19.1;57.6
78708;SHT31;68037;51.978;5.650;2023-07-02T07:02:20;19.1;56.5
78708;SHT31;68037;51.978;5.650;2023-07-02T07:04:50;19.1;56.3
78708;SHT31;68037;51.978;5.650;2023-07-02T07:07:19;19.2;57.1
78708;SHT31;68037;51.978;5.650;2023-07-02T07:09:49;19.2;56.2
78708;SHT31;68037;51.978;5.650;2023-07-02T07:12:19;19.3;56.6
78708;SHT31;68037;51.978;5.650;2023-07-02T07:14:48;19.3;55.9
78708;SHT31;68037;51.978;5.650;2023-07-02T07:17:18;19.4;56.1
78708;SHT31;68037;51.978;5.650;2023-07-02T07:19:48;19.4;56.6
78708;SHT31;68037;51.978;5.650;2023-07-02T07:22:17;19.4;56.1
78708;SHT31;68037;51.978;5.650;2023-07-02T07:24:47;19.5;56.0
78708;SHT31;68037;51.978;5.650;2023-07-02T07:27:16;19.5;55.8
78708;SHT31;68037;51.978;5.650;2023-07-02T07:29:46;19.5;56.7
78708;SHT31;68037;51.978;5.650;2023-07-02T07:32:16;19.6;56.3
78708;SHT31;68037;51.978;5.650;2023-07-02T07:34:45;19.7;55.8
78708;SHT31;68037;51.978;5.650;2023-07-02T07:37:15;19.7;55.8
78708;SHT31;68037;51.978;5.650;2023-07-02T07:39:44;19.7;55.5
78708;SHT31;68037;51.978;5.650;2023-07-02T07:42:16;19.8;55.6
78708;SHT31;68037;51.978;5.650;2023-07-02T07:44:46;19.8;54.6
78708;SHT31;68037;51.978;5.650;2023-07-02T07:47:16;19.8;55.2
78708;SHT31;68037;51.978;5.650;2023-07-02T07:49:45;19.8;54.8
78708;SHT31;68037;51.978;5.650;2023-07-02T07:52:15;19.8;54.9
78708;SHT31;68037;51.978;5.650;2023-07-02T07:54:45;19.8;54.0
78708;SHT31;68037;51.978;5.650;2023-07-02T07:57:17;19.9;53.5
78708;SHT31;68037;51.978;5.650;2023-07-02T07:59:48;20.0;53.8
78708;SHT31;68037;51.978;5.650;2023-07-02T08:02:21;20.0;53.1
78708;SHT31;68037;51.978;5.650;2023-07-02T08:04:52;20.1;52.1
78708;SHT31;68037;51.978;5.650;2023-07-02T08:07:23;20.2;52.2
78708;SHT31;68037;51.978;5.650;2023-07-02T08:09:54;20.3;52.4
78708;SHT31;68037;51.978;5.650;2023-07-02T08:12:24;20.3;51.6
78708;SHT31;68037;51.978;5.650;2023-07-02T08:14:55;20.4;51.4
78708;SHT31;68037;51.978;5.650;2023-07-02T08:17:25;20.4;49.8
78708;SHT31;68037;51.978;5.650;2023-07-02T08:19:55;20.5;49.6
78708;SHT31;68037;51.978;5.650;2023-07-02T08:22:24;20.5;50.1
78708;SHT31;68037;51.978;5.650;2023-07-02T08:24:54;20.5;49.4
78708;SHT31;68037;51.978;5.650;2023-07-02T08:27:24;20.5;49.1
78708;SHT31;68037;51.978;5.650;2023-07-02T08:29:53;20.5;47.9
78708;SHT31;68037;51.978;5.650;2023-07-02T08:32:23;20.5;49.0
78708;SHT31;68037;51.978;5.650;2023-07-02T08:34:55;20.4;49.9
78708;SHT31;68037;51.978;5.650;2023-07-02T08:37:24;20.4;49.7
78708;SHT31;68037;51.978;5.650;2023-07-02T08:39:54;20.4;50.7
78708;SHT31;68037;51.978;5.650;2023-07-02T08:42:25;20.4;50.4
78708;SHT31;68037;51.978;5.650;2023-07-02T08:44:57;20.4;50.0
78708;SHT31;68037;51.978;5.650;2023-07-02T08:47:28;20.5;49.3
78708;SHT31;68037;51.978;5.650;2023-07-02T08:49:59;20.5;49.5
78708;SHT31;68037;51.978;5.650;2023-07-02T08:52:28;20.6;49.4
78708;SHT31;68037;51.978;5.650;2023-07-02T08:54:58;20.6;48.7
78708;SHT31;68037;51.978;5.650;2023-07-02T08:57:27;20.6;49.1
78708;SHT31;68037;51.978;5.650;2023-07-02T08:59:59;20.6;46.9
78708;SHT31;68037;51.978;5.650;2023-07-02T09:02:32;20.6;45.4
78708;SHT31;68037;51.978;5.650;2023-07-02T09:05:03;20.7;46.6
78708;SHT31;68037;51.978;5.650;2023-07-02T09:07:46;20.8;46.0
78708;SHT31;68037;51.978;5.650;2023-07-02T09:10:27;20.8;46.0
78708;SHT31;68037;51.978;5.650;2023-07-02T09:13:07;20.9;44.4
78708;SHT31;68037;51.978;5.650;2023-07-02T09:15:37;21.0;45.4
78708;SHT31;68037;51.978;5.650;2023-07-02T09:18:17;21.0;43.8
78708;SHT31;68037;51.978;5.650;2023-07-02T09:20:50;21.0;44.3
78708;SHT31;68037;51.978;5.650;2023-07-02T09:23:21;21.1;42.1
78708;SHT31;68037;51.978;5.650;2023-07-02T09:25:51;21.1;43.1
78708;SHT31;68037;51.978;5.650;2023-07-02T09:28:21;21.1;42.9
78708;SHT31;68037;51.978;5.650;2023-07-02T09:30:54;21.1;42.7
78708;SHT31;68037;51.978;5.650;2023-07-02T09:33:25;21.1;42.3
78708;SHT31;68037;51.978;5.650;2023-07-02T09:35:57;21.2;42.1
78708;SHT31;68037;51.978;5.650;2023-07-02T09:38:28;21.2;41.4
78708;SHT31;68037;51.978;5.650;2023-07-02T09:40:58;21.3;41.3
78708;SHT31;68037;51.978;5.650;2023-07-02T09:43:31;21.3;41.9
78708;SHT31;68037;51.978;5.650;2023-07-02T09:46:03;21.4;42.9
78708;SHT31;68037;51.978;5.650;2023-07-02T09:48:35;21.4;42.4
78708;SHT31;68037;51.978;5.650;2023-07-02T09:51:05;21.5;40.9
78708;SHT31;68037;51.978;5.650;2023-07-02T09:53:35;21.5;41.9
78708;SHT31;68037;51.978;5.650;2023-07-02T09:56:07;21.5;41.4
78708;SHT31;68037;51.978;5.650;2023-07-02T09:58:37;21.6;41.2
78708;SHT31;68037;51.978;5.650;2023-07-02T10:01:07;21.7;39.6
78708;SHT31;68037;51.978;5.650;2023-07-02T10:03:36;21.7;40.6
78708;SHT31;68037;51.978;5.650;2023-07-02T10:06:07;21.8;41.0
78708;SHT31;68037;51.978;5.650;2023-07-02T10:08:36;21.9;41.4
78708;SHT31;68037;51.978;5.650;2023-07-02T10:11:13;22.0;40.2
78708;SHT31;68037;51.978;5.650;2023-07-02T10:13:42;22.0;39.2
78708;SHT31;68037;51.978;5.650;2023-07-02T10:16:12;22.1;39.8
78708;SHT31;68037;51.978;5.650;2023-07-02T10:18:42;22.1;39.3
78708;SHT31;68037;51.978;5.650;2023-07-02T10:21:15;22.1;39.8
78708;SHT31;68037;51.978;5.650;2023-07-02T10:23:46;22.2;40.5
78708;SHT31;68037;51.978;5.650;2023-07-02T10:26:17;22.2;39.7
78708;SHT31;68037;51.978;5.650;2023-07-02T10:28:58;22.3;39.0
78708;SHT31;68037;51.978;5.650;2023-07-02T10:31:29;22.4;39.8
78708;SHT31;68037;51.978;5.650;2023-07-02T10:33:59;22.6;38.2
78708;SHT31;68037;51.978;5.650;2023-07-02T10:36:28;22.6;38.2
78708;SHT31;68037;51.978;5.650;2023-07-02T10:39:02;22.7;37.7
78708;SHT31;68037;51.978;5.650;2023-07-02T10:41:36;22.7;36.5
78708;SHT31;68037;51.978;5.650;2023-07-02T10:44:10;22.8;37.7
78708;SHT31;68037;51.978;5.650;2023-07-02T10:46:46;22.8;38.4
78708;SHT31;68037;51.978;5.650;2023-07-02T10:49:18;22.9;38.0
78708;SHT31;68037;51.978;5.650;2023-07-02T10:51:58;22.9;36.9
78708;SHT31;68037;51.978;5.650;2023-07-02T10:54:40;23.0;37.7
78708;SHT31;68037;51.978;5.650;2023-07-02T10:57:13;23.1;37.5
78708;SHT31;68037;51.978;5.650;2023-07-02T10:59:43;23.2;37.8
78708;SHT31;68037;51.978;5.650;2023-07-02T11:02:15;23.3;35.5
78708;SHT31;68037;51.978;5.650;2023-07-02T11:04:47;23.4;36.3
78708;SHT31;68037;51.978;5.650;2023-07-02T11:07:24;23.4;35.6
78708;SHT31;68037;51.978;5.650;2023-07-02T11:09:54;23.5;36.0
78708;SHT31;68037;51.978;5.650;2023-07-02T11:12:29;23.5;35.2
78708;SHT31;68037;51.978;5.650;2023-07-02T11:15:08;23.5;35.5
78708;SHT31;68037;51.978;5.650;2023-07-02T11:17:39;23.6;35.3
78708;SHT31;68037;51.978;5.650;2023-07-02T11:20:11;23.6;34.1
78708;SHT31;68037;51.978;5.650;2023-07-02T11:22:41;23.6;35.8
78708;SHT31;68037;51.978;5.650;2023-07-02T11:25:13;23.6;34.7
78708;SHT31;68037;51.978;5.650;2023-07-02T11:27:44;23.6;34.5
78708;SHT31;68037;51.978;5.650;2023-07-02T11:30:14;23.6;34.0
78708;SHT31;68037;51.978;5.650;2023-07-02T11:32:52;23.6;34.9
78708;SHT31;68037;51.978;5.650;2023-07-02T11:35:35;23.7;35.4
78708;SHT31;68037;51.978;5.650;2023-07-02T11:38:04;23.7;35.7
78708;SHT31;68037;51.978;5.650;2023-07-02T11:40:37;23.7;34.4
78708;SHT31;68037;51.978;5.650;2023-07-02T11:43:07;23.7;33.5
78708;SHT31;68037;51.978;5.650;2023-07-02T11:45:37;23.7;33.3
78708;SHT31;68037;51.978;5.650;2023-07-02T11:48:06;23.6;34.1
78708;SHT31;68037;51.978;5.650;2023-07-02T11:50:36;23.6;34.6
78708;SHT31;68037;51.978;5.650;2023-07-02T11:53:06;23.6;34.7
78708;SHT31;68037;51.978;5.650;2023-07-02T11:55:36;23.6;34.4
78708;SHT31;68037;51.978;5.650;2023-07-02T11:58:06;23.7;34.5
78708;SHT31;68037;51.978;5.650;2023-07-02T12:00:35;23.7;34.2
78708;SHT31;68037;51.978;5.650;2023-07-02T12:03:05;23.8;34.5
78708;SHT31;68037;51.978;5.650;2023-07-02T12:05:35;23.9;34.0
78708;SHT31;68037;51.978;5.650;2023-07-02T12:08:07;24.0;34.5
78708;SHT31;68037;51.978;5.650;2023-07-02T12:10:36;24.0;33.5
78708;SHT31;68037;51.978;5.650;2023-07-02T12:13:06;24.1;33.2
78708;SHT31;68037;51.978;5.650;2023-07-02T12:15:36;24.1;33.4
78708;SHT31;68037;51.978;5.650;2023-07-02T12:18:05;24.2;33.3
78708;SHT31;68037;51.978;5.650;2023-07-02T12:20:35;24.3;32.4
78708;SHT31;68037;51.978;5.650;2023-07-02T12:23:06;24.3;33.2
78708;SHT31;68037;51.978;5.650;2023-07-02T12:25:37;24.4;32.5
78708;SHT31;68037;51.978;5.650;2023-07-02T12:28:07;24.4;33.2
78708;SHT31;68037;51.978;5.650;2023-07-02T12:30:37;24.4;32.4
78708;SHT31;68037;51.978;5.650;2023-07-02T12:33:07;24.4;32.9
78708;SHT31;68037;51.978;5.650;2023-07-02T12:35:36;24.4;32.4
78708;SHT31;68037;51.978;5.650;2023-07-02T12:38:06;24.4;32.7
78708;SHT31;68037;51.978;5.650;2023-07-02T12:40:36;24.3;33.3
78708;SHT31;68037;51.978;5.650;2023-07-02T12:43:06;24.3;32.9
78708;SHT31;68037;51.978;5.650;2023-07-02T12:45:35;24.3;33.3
78708;SHT31;68037;51.978;5.650;2023-07-02T12:48:06;24.4;33.5
78708;SHT31;68037;51.978;5.650;2023-07-02T12:50:37;24.4;33.5
78708;SHT31;68037;51.978;5.650;2023-07-02T12:53:08;24.4;33.4
78708;SHT31;68037;51.978;5.650;2023-07-02T12:55:37;24.5;33.4
78708;SHT31;68037;51.978;5.650;2023-07-02T12:58:07;24.5;34.3
78708;SHT31;68037;51.978;5.650;2023-07-02T13:00:36;24.5;34.2
78708;SHT31;68037;51.978;5.650;2023-07-02T13:03:10;24.6;33.3
78708;SHT31;68037;51.978;5.650;2023-07-02T13:05:40;24.6;33.8
78708;SHT31;68037;51.978;5.650;2023-07-02T13:08:10;24.5;34.2
78708;SHT31;68037;51.978;5.650;2023-07-02T13:10:40;24.6;34.3
78708;SHT31;68037;51.978;5.650;2023-07-02T13:13:10;24.6;34.4
78708;SHT31;68037;51.978;5.650;2023-07-02T13:15:39;24.6;34.7
78708;SHT31;68037;51.978;5.650;2023-07-02T13:18:09;24.6;35.0
78708;SHT31;68037;51.978;5.650;2023-07-02T13:20:38;24.7;34.5
78708;SHT31;68037;51.978;5.650;2023-07-02T13:23:08;24.7;34.8
78708;SHT31;68037;51.978;5.650;2023-07-02T13:25:37;24.7;35.2
78708;SHT31;68037;51.978;5.650;2023-07-02T13:28:07;24.7;35.3
78708;SHT31;68037;51.978;5.650;2023-07-02T13:30:36;24.8;34.2
78708;SHT31;68037;51.978;5.650;2023-07-02T13:33:06;24.9;34.1
78708;SHT31;68037;51.978;5.650;2023-07-02T13:35:35;24.9;34.9
78708;SHT31;68037;51.978;5.650;2023-07-02T13:38:05;24.9;34.6
78708;SHT31;68037;51.978;5.650;2023-07-02T13:40:35;25.0;33.5
78708;SHT31;68037;51.978;5.650;2023-07-02T13:43:04;25.0;33.8
78708;SHT31;68037;51.978;5.650;2023-07-02T13:45:34;25.0;34.5
78708;SHT31;68037;51.978;5.650;2023-07-02T13:48:04;25.0;34.3
78708;SHT31;68037;51.978;5.650;2023-07-02T13:50:34;25.0;34.7
78708;SHT31;68037;51.978;5.650;2023-07-02T13:53:04;25.0;34.0
78708;SHT31;68037;51.978;5.650;2023-07-02T13:55:33;25.0;34.1
78708;SHT31;68037;51.978;5.650;2023-07-02T13:58:03;25.0;34.7
78708;SHT31;68037;51.978;5.650;2023-07-02T14:00:33;25.1;35.7
78708;SHT31;68037;51.978;5.650;2023-07-02T14:03:03;25.1;34.3
78708;SHT31;68037;51.978;5.650;2023-07-02T14:05:33;25.2;34.3
78708;SHT31;68037;51.978;5.650;2023-07-02T14:08:03;25.3;34.3
78708;SHT31;68037;51.978;5.650;2023-07-02T14:10:33;25.4;35.2
78708;SHT31;68037;51.978;5.650;2023-07-02T14:13:02;25.5;34.9
78708;SHT31;68037;51.978;5.650;2023-07-02T14:15:33;25.6;34.6
78708;SHT31;68037;51.978;5.650;2023-07-02T14:18:02;25.8;34.1
78708;SHT31;68037;51.978;5.650;2023-07-02T14:20:33;25.8;34.0
78708;SHT31;68037;51.978;5.650;2023-07-02T14:23:03;25.9;32.8
78708;SHT31;68037;51.978;5.650;2023-07-02T14:25:34;26.0;33.1
78708;SHT31;68037;51.978;5.650;2023-07-02T14:28:04;26.1;33.1
78708;SHT31;68037;51.978;5.650;2023-07-02T14:30:33;26.3;32.3
78708;SHT31;68037;51.978;5.650;2023-07-02T14:33:04;26.4;31.4
78708;SHT31;68037;51.978;5.650;2023-07-02T14:35:36;26.5;31.2
78708;SHT31;68037;51.978;5.650;2023-07-02T14:38:05;26.7;30.2
78708;SHT31;68037;51.978;5.650;2023-07-02T14:40:35;26.8;30.6
78708;SHT31;68037;51.978;5.650;2023-07-02T14:43:04;27.0;28.3
78708;SHT31;68037;51.978;5.650;2023-07-02T14:45:34;27.1;28.8
78708;SHT31;68037;51.978;5.650;2023-07-02T14:48:05;27.2;28.0
78708;SHT31;68037;51.978;5.650;2023-07-02T14:50:34;27.1;27.9
78708;SHT31;68037;51.978;5.650;2023-07-02T14:53:06;27.1;28.7
78708;SHT31;68037;51.978;5.650;2023-07-02T14:55:36;27.1;29.5
78708;SHT31;68037;51.978;5.650;2023-07-02T14:58:06;27.2;28.5
78708;SHT31;68037;51.978;5.650;2023-07-02T15:00:45;27.4;28.3
78708;SHT31;68037;51.978;5.650;2023-07-02T15:03:15;27.4;28.2
78708;SHT31;68037;51.978;5.650;2023-07-02T15:05:46;27.5;27.6
78708;SHT31;68037;51.978;5.650;2023-07-02T15:08:17;27.5;27.9
78708;SHT31;68037;51.978;5.650;2023-07-02T15:10:51;27.5;28.3
78708;SHT31;68037;51.978;5.650;2023-07-02T15:13:22;27.5;27.4
78708;SHT31;68037;51.978;5.650;2023-07-02T15:15:52;27.6;27.5
78708;SHT31;68037;51.978;5.650;2023-07-02T15:18:22;27.8;27.8
78708;SHT31;68037;51.978;5.650;2023-07-02T15:20:52;28.0;28.6
78708;SHT31;68037;51.978;5.650;2023-07-02T15:23:23;28.2;28.3
78708;SHT31;68037;51.978;5.650;2023-07-02T15:25:54;28.5;26.9
78708;SHT31;68037;51.978;5.650;2023-07-02T15:28:25;28.7;27.2
78708;SHT31;68037;51.978;5.650;2023-07-02T15:30:57;28.9;26.9
78708;SHT31;68037;51.978;5.650;2023-07-02T15:33:29;29.1;26.7
78708;SHT31;68037;51.978;5.650;2023-07-02T15:36:01;29.2;26.9
78708;SHT31;68037;51.978;5.650;2023-07-02T15:38:32;29.2;26.8
78708;SHT31;68037;51.978;5.650;2023-07-02T15:41:07;29.3;26.6
78708;SHT31;68037;51.978;5.650;2023-07-02T15:43:39;29.3;27.0
78708;SHT31;68037;51.978;5.650;2023-07-02T15:46:11;29.3;26.2
78708;SHT31;68037;51.978;5.650;2023-07-02T15:48:42;29.2;27.0
78708;SHT31;68037;51.978;5.650;2023-07-02T15:51:12;29.2;26.8
78708;SHT31;68037;51.978;5.650;2023-07-02T15:53:42;29.2;26.9
78708;SHT31;68037;51.978;5.650;2023-07-02T15:56:11;29.1;27.1
78708;SHT31;68037;51.978;5.650;2023-07-02T15:58:42;29.0;27.2
78708;SHT31;68037;51.978;5.650;2023-07-02T16:01:15;29.0;27.8
78708;SHT31;68037;51.978;5.650;2023-07-02T16:03:45;29.0;27.5
78708;SHT31;68037;51.978;5.650;2023-07-02T16:06:16;29.0;27.6
78708;SHT31;68037;51.978;5.650;2023-07-02T16:08:46;29.0;27.4
78708;SHT31;68037;51.978;5.650;2023-07-02T16:11:16;29.0;27.5
78708;SHT31;68037;51.978;5.650;2023-07-02T16:13:46;29.1;27.8
78708;SHT31;68037;51.978;5.650;2023-07-02T16:16:15;29.1;27.6
78708;SHT31;68037;51.978;5.650;2023-07-02T16:18:45;29.1;27.9
78708;SHT31;68037;51.978;5.650;2023-07-02T16:21:15;29.2;27.7
78708;SHT31;68037;51.978;5.650;2023-07-02T16:23:47;29.1;27.7